createdAt,value
2018-05-17T00:04:14.110Z,87.47
2018-05-17T00:09:08.173Z,87.15
2018-05-17T00:14:01.472Z,87.44
2018-05-17T00:18:54.768Z,87.52
2018-05-17T00:23:48.831Z,88.01
2018-05-17T00:28:42.148Z,87.90
2018-05-17T00:33:36.220Z,87.26
2018-05-17T00:38:29.511Z,87.70
2018-05-17T00:43:23.575Z,87.69
2018-05-17T00:48:17.806Z,86.68
2018-05-17T00:53:29.449Z,87.56
2018-05-17T00:58:23.494Z,87.69
2018-05-17T01:03:16.807Z,87.55
2018-05-17T01:08:10.871Z,87.15
2018-05-17T01:13:04.943Z,87.26
2018-05-17T01:17:58.234Z,87.24
2018-05-17T01:22:51.594Z,86.88
2018-05-17T01:27:44.829Z,87.21
2018-05-17T01:32:38.129Z,87.03
2018-05-17T01:37:49.057Z,87.40
2018-05-17T01:42:43.135Z,87.75
2018-05-17T01:47:36.450Z,87.58
2018-05-17T01:52:30.508Z,87.78
2018-05-17T01:57:23.808Z,87.98
2018-05-17T02:02:17.117Z,87.84
2018-05-17T02:07:10.402Z,88.34
2018-05-17T02:12:03.701Z,88.34
2018-05-17T02:16:56.983Z,88.15
2018-05-17T02:21:50.280Z,88.23
2018-05-17T02:26:44.348Z,88.42
2018-05-17T02:31:37.636Z,88.35
2018-05-17T02:36:30.947Z,88.07
2018-05-17T02:41:24.999Z,88.48
2018-05-17T02:46:18.307Z,88.66
2018-05-17T02:51:12.371Z,88.45
2018-05-17T02:56:05.679Z,88.49
2018-05-17T03:00:59.736Z,88.66
2018-05-17T03:05:53.053Z,88.51
2018-05-17T03:10:47.113Z,88.51
2018-05-17T03:15:40.436Z,88.44
2018-05-17T03:20:34.578Z,88.44
2018-05-17T03:25:27.779Z,88.33
2018-05-17T03:30:21.831Z,88.48
2018-05-17T03:35:15.117Z,88.54
2018-05-17T03:40:08.429Z,88.28
2018-05-17T03:45:01.719Z,88.40
2018-05-17T03:49:56.695Z,88.54
2018-05-17T03:54:50.732Z,88.78
2018-05-17T03:59:44.804Z,88.62
2018-05-17T04:04:55.663Z,88.40
2018-05-17T04:09:48.943Z,88.20
2018-05-17T04:14:42.264Z,88.31
2018-05-17T04:24:29.609Z,88.48
2018-05-17T04:34:26.090Z,88.42
2018-05-17T04:39:19.370Z,88.06
2018-05-17T04:44:12.687Z,88.35
2018-05-17T04:49:06.030Z,87.35
2018-05-17T04:53:59.339Z,87.95
2018-05-17T04:58:53.397Z,88.25
2018-05-17T05:03:46.696Z,88.14
2018-05-17T05:08:39.991Z,88.01
2018-05-17T05:13:34.050Z,87.61
2018-05-17T05:18:27.358Z,88.28
2018-05-17T05:23:21.425Z,88.33
2018-05-17T05:28:14.728Z,88.33
2018-05-17T05:33:08.048Z,88.59
2018-05-17T05:38:01.368Z,88.44
2018-05-17T05:42:54.685Z,88.72
2018-05-17T05:47:48.767Z,88.84
2018-05-17T05:52:42.844Z,88.97
2018-05-17T05:57:36.146Z,88.98
2018-05-17T06:02:29.518Z,89.00
2018-05-17T06:07:22.755Z,88.81
2018-05-17T06:12:17.562Z,88.85
2018-05-17T06:17:10.948Z,88.65
2018-05-17T06:22:04.258Z,88.58
2018-05-17T06:26:58.322Z,88.30
2018-05-17T06:31:51.632Z,87.95
2018-05-17T06:36:44.938Z,86.97
2018-05-17T06:41:38.238Z,87.40
2018-05-17T06:46:31.544Z,87.35
2018-05-17T06:51:25.600Z,87.34
2018-05-17T06:56:18.898Z,87.70
2018-05-17T07:01:12.286Z,87.56
2018-05-17T07:10:50.624Z,87.29
2018-05-17T07:15:43.940Z,87.26
2018-05-17T07:20:37.238Z,87.61
2018-05-17T07:25:30.545Z,87.81
2018-05-17T07:30:23.838Z,87.62
2018-05-17T07:35:17.180Z,87.24
2018-05-17T07:40:10.470Z,87.34
2018-05-17T07:45:03.744Z,87.60
2018-05-17T07:49:57.037Z,86.24
2018-05-17T07:54:50.364Z,86.57
2018-05-17T07:59:44.464Z,85.92
2018-05-17T08:04:37.850Z,85.85
2018-05-17T08:09:31.223Z,86.15
2018-05-17T08:14:24.472Z,86.69
2018-05-17T08:19:18.568Z,86.89
2018-05-17T08:24:12.619Z,87.30
2018-05-17T08:29:05.918Z,87.73
2018-05-17T08:33:59.241Z,86.90
2018-05-17T08:38:52.533Z,87.27
2018-05-17T08:43:45.829Z,87.42
2018-05-17T08:48:39.108Z,87.26
2018-05-17T08:53:32.405Z,87.24
2018-05-17T08:58:25.698Z,86.36
2018-05-17T09:03:19.048Z,87.27
2018-05-17T09:08:12.349Z,86.35
2018-05-17T09:13:06.429Z,86.80
2018-05-17T09:17:59.845Z,86.13
2018-05-17T09:22:54.917Z,86.39
2018-05-17T09:27:48.214Z,86.83
2018-05-17T09:32:41.520Z,85.51
2018-05-17T09:37:34.823Z,85.25
2018-05-17T09:42:28.123Z,85.04
2018-05-17T09:47:22.175Z,84.42
2018-05-17T09:52:15.462Z,84.78
2018-05-17T09:57:08.767Z,83.82
2018-05-17T10:02:02.046Z,81.86
2018-05-17T10:06:55.337Z,82.70
2018-05-17T10:11:48.650Z,83.96
2018-05-17T10:16:41.943Z,84.50
2018-05-17T10:21:35.232Z,85.15
2018-05-17T10:26:28.520Z,85.10
2018-05-17T10:31:21.821Z,84.89
2018-05-17T10:36:17.883Z,85.08
2018-05-17T10:41:11.942Z,84.67
2018-05-17T10:46:05.370Z,84.28
2018-05-17T10:50:58.684Z,84.05
2018-05-17T10:55:51.978Z,83.54
2018-05-17T11:00:45.316Z,84.41
2018-05-17T11:05:38.605Z,83.97
2018-05-17T11:10:31.905Z,83.36
2018-05-17T11:15:25.187Z,84.23
2018-05-17T11:20:18.515Z,83.60
2018-05-17T11:25:11.850Z,83.74
2018-05-17T11:30:05.159Z,83.70
2018-05-17T11:34:59.210Z,83.55
2018-05-17T11:39:52.492Z,84.11
2018-05-17T11:44:45.807Z,83.18
2018-05-17T11:49:39.830Z,82.95
2018-05-17T11:54:33.124Z,82.01
2018-05-17T11:59:26.451Z,83.43
2018-05-17T12:04:20.506Z,84.53
2018-05-17T12:09:13.811Z,84.01
2018-05-17T12:14:07.951Z,82.09
2018-05-17T12:19:01.264Z,81.71
2018-05-17T12:23:54.559Z,82.91
2018-05-17T12:28:47.858Z,82.21
2018-05-17T12:33:41.163Z,81.29
2018-05-17T12:38:34.459Z,79.87
2018-05-17T12:43:27.746Z,78.18
2018-05-17T12:48:21.060Z,76.07
2018-05-17T12:53:15.110Z,75.26
2018-05-17T12:58:08.400Z,74.45
2018-05-17T13:03:01.701Z,72.74
2018-05-17T13:07:55.763Z,73.31
2018-05-17T13:12:49.059Z,75.82
2018-05-17T13:17:50.949Z,75.30
2018-05-17T13:22:44.284Z,77.24
2018-05-17T13:27:37.931Z,77.31
2018-05-17T13:32:31.283Z,80.14
2018-05-17T13:37:25.420Z,81.30
2018-05-17T13:42:18.649Z,82.66
2018-05-17T13:47:12.726Z,81.49
2018-05-17T13:52:06.114Z,82.62
2018-05-17T13:57:00.183Z,81.33
2018-05-17T14:01:53.499Z,79.73
2018-05-17T14:06:46.918Z,80.07
2018-05-17T14:11:40.242Z,79.55
2018-05-17T14:16:33.543Z,80.38
2018-05-17T14:21:27.620Z,79.00
2018-05-17T14:26:20.960Z,76.22
2018-05-17T14:31:14.267Z,77.88
2018-05-17T14:36:07.649Z,76.56
2018-05-17T14:41:00.951Z,76.71
2018-05-17T14:45:54.365Z,75.31
2018-05-17T14:50:47.655Z,75.12
2018-05-17T14:55:41.583Z,73.98
2018-05-17T15:00:35.646Z,73.67
2018-05-17T15:05:29.734Z,74.87
2018-05-17T15:10:23.028Z,75.93
2018-05-17T15:15:16.328Z,76.29
2018-05-17T15:20:10.397Z,76.80
2018-05-17T15:25:03.738Z,74.78
2018-05-17T15:29:57.163Z,75.17
2018-05-17T15:34:50.492Z,74.66
2018-05-17T15:39:43.803Z,75.40
2018-05-17T15:44:37.103Z,75.06
2018-05-17T15:49:30.405Z,75.50
2018-05-17T15:54:23.725Z,74.92
2018-05-17T15:59:17.024Z,73.85
2018-05-17T16:04:10.324Z,74.90
2018-05-17T16:09:05.157Z,76.00
2018-05-17T16:13:58.471Z,74.06
2018-05-17T16:18:52.707Z,75.71
2018-05-17T16:23:46.833Z,76.12
2018-05-17T16:28:40.986Z,77.66
2018-05-17T16:33:34.297Z,77.73
2018-05-17T16:38:27.625Z,77.14
2018-05-17T16:43:20.939Z,77.64
2018-05-17T16:48:15.026Z,77.14
2018-05-17T16:53:08.319Z,77.99
2018-05-17T16:58:02.422Z,78.00
2018-05-17T17:02:55.710Z,78.15
2018-05-17T17:07:49.020Z,79.58
2018-05-17T17:12:42.349Z,78.89
2018-05-17T17:17:35.663Z,77.92
2018-05-17T17:22:29.010Z,78.25
2018-05-17T17:27:22.343Z,80.33
2018-05-17T17:32:15.733Z,81.49
2018-05-17T17:37:14.099Z,80.86
2018-05-17T17:47:30.671Z,82.18
2018-05-17T17:52:23.983Z,82.91
2018-05-17T18:02:41.641Z,83.79
2018-05-17T18:07:34.973Z,84.41
2018-05-17T18:12:28.269Z,83.86
2018-05-17T18:17:21.579Z,85.24
2018-05-17T18:22:15.013Z,85.53
2018-05-17T18:27:08.450Z,85.69
2018-05-17T18:32:02.548Z,85.81
2018-05-17T18:36:56.671Z,86.54
2018-05-17T18:41:49.975Z,86.90
2018-05-17T18:46:43.312Z,86.79
2018-05-17T18:51:36.652Z,86.73
2018-05-17T18:56:29.988Z,86.95
2018-05-17T19:01:23.300Z,87.23
2018-05-17T19:06:16.986Z,87.38
2018-05-17T19:11:11.092Z,87.06
2018-05-17T19:16:04.424Z,86.74
2018-05-17T19:20:57.753Z,87.40
2018-05-17T19:25:51.057Z,86.32
2018-05-17T19:30:44.376Z,87.29
2018-05-17T19:35:37.692Z,86.42
2018-05-17T19:40:31.784Z,85.54
2018-05-17T19:45:25.135Z,86.99
2018-05-17T19:50:18.476Z,86.38
2018-05-17T19:55:11.792Z,87.45
2018-05-17T20:00:05.159Z,87.70
2018-05-17T20:04:58.480Z,87.76
2018-05-17T20:09:52.551Z,87.75
2018-05-17T20:14:50.420Z,88.16
2018-05-17T20:19:55.358Z,88.20
2018-05-17T20:24:48.675Z,87.74
2018-05-17T20:29:41.985Z,88.20
2018-05-17T20:34:35.296Z,88.05
2018-05-17T20:39:28.629Z,87.31
2018-05-17T20:44:21.940Z,88.09
2018-05-17T20:49:15.217Z,88.33
2018-05-17T20:54:09.262Z,88.22
2018-05-17T20:59:03.389Z,88.40
2018-05-17T21:03:56.756Z,87.97
2018-05-17T21:08:50.067Z,88.45
2018-05-17T21:13:43.382Z,88.47
2018-05-17T21:18:36.704Z,88.36
2018-05-17T21:23:30.019Z,87.95
2018-05-17T21:28:23.345Z,88.12
2018-05-17T21:33:17.420Z,88.28
2018-05-17T21:38:11.487Z,88.24
2018-05-17T21:43:04.799Z,88.37
2018-05-17T21:47:58.109Z,88.51
2018-05-17T21:52:51.400Z,88.03
2018-05-17T21:57:44.726Z,88.23
2018-05-17T22:02:38.812Z,88.44
2018-05-17T22:07:32.118Z,88.54
2018-05-17T22:12:25.428Z,88.58
2018-05-17T22:17:21.733Z,88.18
2018-05-17T22:22:15.803Z,88.67
2018-05-17T22:27:09.088Z,88.74
2018-05-17T22:32:03.159Z,88.69
2018-05-17T22:36:56.465Z,88.55
2018-05-17T22:41:49.769Z,88.59
2018-05-17T22:46:43.055Z,88.37
2018-05-17T22:51:36.347Z,88.03
2018-05-17T22:56:47.251Z,88.05
2018-05-17T23:01:40.555Z,88.62
2018-05-17T23:06:33.856Z,87.95
2018-05-17T23:11:27.155Z,88.68
2018-05-17T23:16:20.456Z,88.35
2018-05-17T23:21:13.749Z,88.31
2018-05-17T23:26:07.782Z,88.67
2018-05-17T23:31:01.091Z,88.50
2018-05-17T23:35:54.382Z,87.85
2018-05-17T23:46:16.705Z,88.61
2018-05-17T23:51:10.788Z,88.56
2018-05-17T23:56:04.312Z,88.60
